Time;durP1;ratioP1;P1;durP2;ratioP2;P2;SDS_P1;SDS_P2;PMS_P1;PMS_P2;Temp;Humidity;BMP_temperature;BMP_pressure;BME280_temperature;BME280_humidity;BME280_pressure;Samples;Min_cycle;Max_cycle;Signal;HPM_P1;HPM_P2
2021/09/01 00:00:28;;;;;;;10.88;5.38;;;13.10;71.20;;;;;;4870923;29;20048;-65
2021/09/01 00:02:55;;;;;;;15.60;5.40;;;13.10;71.20;;;;;;4869819;29;20097;-66
2021/09/01 00:05:22;;;;;;;10.60;4.00;;;13.10;71.10;;;;;;4866466;29;20492;-66
2021/09/01 00:07:48;;;;;;;8.30;2.30;;;13.00;70.80;;;;;;4869921;29;20021;-66
2021/09/01 00:10:15;;;;;;;6.22;1.40;;;13.00;70.70;;;;;;4872499;29;20018;-66
2021/09/01 00:12:43;;;;;;;3.28;1.25;;;13.00;70.30;;;;;;4872396;29;20033;-66
2021/09/01 00:15:11;;;;;;;3.30;1.13;;;13.00;70.20;;;;;;4871501;29;20037;-65
2021/09/01 00:17:38;;;;;;;7.00;1.75;;;13.00;70.10;;;;;;4870014;29;20104;-67
2021/09/01 00:20:07;;;;;;;10.50;4.70;;;13.00;69.90;;;;;;4869873;29;20035;-67
2021/09/01 00:22:34;;;;;;;21.85;8.63;;;13.00;69.90;;;;;;4869115;29;20047;-67
2021/09/01 00:25:01;;;;;;;14.18;7.72;;;13.00;69.70;;;;;;4871750;29;20025;-67
2021/09/01 00:27:28;;;;;;;19.30;5.30;;;13.00;69.70;;;;;;4871898;29;20116;-66
2021/09/01 00:29:54;;;;;;;11.75;5.90;;;13.00;69.60;;;;;;4870591;29;20026;-66
2021/09/01 00:32:21;;;;;;;8.80;4.78;;;12.90;69.60;;;;;;4869031;29;20092;-66
2021/09/01 00:34:47;;;;;;;10.25;3.95;;;12.90;69.60;;;;;;4871338;29;20021;-67
2021/09/01 00:37:14;;;;;;;10.13;4.20;;;12.90;69.60;;;;;;4872548;29;20030;-67
2021/09/01 00:39:40;;;;;;;10.95;2.97;;;12.90;69.50;;;;;;4871268;29;20085;-66
2021/09/01 00:42:07;;;;;;;3.80;1.92;;;12.90;69.20;;;;;;4869065;29;20438;-67
2021/09/01 00:44:35;;;;;;;3.15;2.20;;;12.90;69.00;;;;;;4870915;29;20033;-66
2021/09/01 00:47:03;;;;;;;2.90;1.50;;;12.90;68.60;;;;;;4871541;29;20021;-66
2021/09/01 00:49:30;;;;;;;7.78;2.00;;;12.80;68.40;;;;;;4869386;29;20438;-66
2021/09/01 00:51:58;;;;;;;5.60;1.10;;;12.80;68.20;;;;;;4866898;29;20029;-66
2021/09/01 00:54:26;;;;;;;4.57;1.30;;;12.80;68.20;;;;;;4871135;29;20111;-66
2021/09/01 00:56:58;;;;;;;7.28;1.83;;;12.80;68.30;;;;;;4866049;29;20021;-65
2021/09/01 00:59:26;;;;;;;6.47;1.85;;;12.80;68.30;;;;;;4873995;29;20060;-66
2021/09/01 01:01:54;;;;;;;5.85;2.38;;;12.80;68.10;;;;;;4870719;29;20013;-67
2021/09/01 01:04:22;;;;;;;7.97;2.92;;;12.80;68.30;;;;;;4870157;29;20032;-67
2021/09/01 01:06:48;;;;;;;4.88;1.35;;;12.80;68.20;;;;;;4869705;29;20387;-66
2021/09/01 01:09:15;;;;;;;4.75;1.40;;;12.80;68.20;;;;;;4870521;29;20028;-66
2021/09/01 01:12:05;;;;;;;4.43;1.00;;;12.80;68.10;;;;;;4871920;29;20121;-68
2021/09/01 01:14:52;;;;;;;4.15;1.60;;;12.80;68.20;;;;;;4869535;29;20037;-66
2021/09/01 01:17:23;;;;;;;3.00;1.05;;;12.80;68.30;;;;;;4869552;29;21082;-66
2021/09/01 01:19:51;;;;;;;5.15;1.85;;;12.80;68.40;;;;;;4867051;29;20477;-66
2021/09/01 01:22:23;;;;;;;3.25;1.73;;;12.80;68.40;;;;;;4871260;29;20025;-67
2021/09/01 01:25:01;;;;;;;7.22;1.85;;;12.80;68.20;;;;;;4871895;29;20052;-66
2021/09/01 01:27:34;;;;;;;3.30;1.70;;;12.70;68.40;;;;;;4866804;29;20021;-66
2021/09/01 01:30:15;;;;;;;2.20;1.48;;;12.70;68.60;;;;;;4867981;29;20165;-66
2021/09/01 01:32:44;;;;;;;5.75;1.20;;;12.70;68.70;;;;;;4870113;29;21060;-67
2021/09/01 01:35:11;;;;;;;6.90;1.30;;;12.70;68.70;;;;;;4872831;29;20430;-67
2021/09/01 01:37:41;;;;;;;8.85;2.03;;;12.70;68.70;;;;;;4869277;29;20179;-67
2021/09/01 01:40:07;;;;;;;5.15;0.90;;;12.70;68.70;;;;;;4867281;29;20473;-66
2021/09/01 01:42:41;;;;;;;5.15;0.82;;;12.70;68.70;;;;;;4870221;29;20029;-67
2021/09/01 01:45:09;;;;;;;3.30;1.20;;;12.70;68.70;;;;;;4871427;29;20025;-67
2021/09/01 01:47:35;;;;;;;2.38;0.75;;;12.70;68.60;;;;;;4868472;29;20527;-68
2021/09/01 01:50:02;;;;;;;7.13;1.48;;;12.70;68.70;;;;;;4867516;29;20397;-68
2021/09/01 01:52:29;;;;;;;7.28;1.10;;;12.70;68.80;;;;;;4869404;29;20024;-67
2021/09/01 01:54:55;;;;;;;4.53;1.50;;;12.70;68.80;;;;;;4868805;29;20104;-66
2021/09/01 01:57:22;;;;;;;4.00;0.93;;;12.70;68.70;;;;;;4868277;29;20109;-66
2021/09/01 01:59:48;;;;;;;2.53;0.80;;;12.70;68.70;;;;;;4868933;29;20061;-68
2021/09/01 02:02:14;;;;;;;2.58;0.88;;;12.70;68.90;;;;;;4868514;29;20029;-68
2021/09/01 02:04:41;;;;;;;3.58;1.00;;;12.70;68.90;;;;;;4871840;29;20044;-68
2021/09/01 02:07:08;;;;;;;5.45;1.20;;;12.70;68.90;;;;;;4867440;29;20470;-68
2021/09/01 02:09:34;;;;;;;3.78;0.90;;;12.70;68.70;;;;;;4871689;29;20043;-67
2021/09/01 02:12:00;;;;;;;4.53;0.70;;;12.70;68.90;;;;;;4871565;29;20025;-66
2021/09/01 02:14:27;;;;;;;4.40;0.93;;;12.60;68.70;;;;;;4867928;29;20025;-67
2021/09/01 02:16:54;;;;;;;4.68;0.90;;;12.60;68.70;;;;;;4870257;29;20032;-67
2021/09/01 02:19:20;;;;;;;1.85;0.82;;;12.60;68.50;;;;;;4867065;29;20088;-68
2021/09/01 02:21:47;;;;;;;3.45;0.95;;;12.60;68.50;;;;;;4870846;29;20516;-67
2021/09/01 02:24:13;;;;;;;5.05;0.85;;;12.60;68.40;;;;;;4869266;29;20069;-70
2021/09/01 02:26:40;;;;;;;6.05;1.25;;;12.70;68.20;;;;;;4858572;29;20073;-67
2021/09/01 02:29:06;;;;;;;10.95;2.33;;;12.60;67.80;;;;;;4869259;29;20503;-67
2021/09/01 02:31:32;;;;;;;7.82;2.13;;;12.60;67.80;;;;;;4867691;29;20513;-68
2021/09/01 02:33:59;;;;;;;7.65;3.58;;;12.60;67.30;;;;;;4868092;29;20484;-67
2021/09/01 02:36:25;;;;;;;7.35;2.75;;;12.60;67.10;;;;;;4870259;29;20394;-67
2021/09/01 02:38:52;;;;;;;6.13;2.03;;;12.60;67.10;;;;;;4867295;29;20049;-68
2021/09/01 02:41:19;;;;;;;4.20;1.40;;;12.60;66.60;;;;;;4868377;29;20030;-67
2021/09/01 02:43:45;;;;;;;7.88;1.23;;;12.50;66.50;;;;;;4874779;29;20103;-68
2021/09/01 02:46:12;;;;;;;7.13;1.25;;;12.60;66.50;;;;;;4873796;29;20021;-68
2021/09/01 02:48:38;;;;;;;3.53;1.00;;;12.60;66.40;;;;;;4858830;29;20543;-67
2021/09/01 02:51:04;;;;;;;4.63;1.58;;;12.60;66.30;;;;;;4873869;29;20025;-67
2021/09/01 02:53:31;;;;;;;10.32;2.28;;;12.60;66.40;;;;;;4875804;29;20548;-67
2021/09/01 02:55:58;;;;;;;4.78;0.93;;;12.50;66.50;;;;;;4871889;29;20100;-66
2021/09/01 02:58:24;;;;;;;6.85;1.00;;;12.50;66.80;;;;;;4871367;29;20155;-66
2021/09/01 03:00:51;;;;;;;6.38;0.98;;;12.50;66.80;;;;;;4875597;29;20021;-67
2021/09/01 03:03:17;;;;;;;3.60;0.93;;;12.50;66.80;;;;;;4874830;29;20025;-68
2021/09/01 03:05:44;;;;;;;5.55;0.90;;;12.50;66.90;;;;;;4871434;29;21047;-67
2021/09/01 03:08:10;;;;;;;9.50;1.10;;;12.50;67.10;;;;;;4874626;29;20058;-66
2021/09/01 03:10:37;;;;;;;2.13;0.90;;;12.50;67.20;;;;;;4872283;29;20116;-66
2021/09/01 03:13:03;;;;;;;2.58;0.50;;;12.50;67.40;;;;;;4872047;29;20625;-66
2021/09/01 03:15:30;;;;;;;2.50;0.90;;;12.50;67.30;;;;;;4870945;29;20037;-66
2021/09/01 03:17:57;;;;;;;2.83;0.82;;;12.50;67.30;;;;;;4872691;29;20093;-66
2021/09/01 03:20:24;;;;;;;6.55;1.48;;;12.50;67.00;;;;;;4874713;29;20024;-66
2021/09/01 03:23:30;;;;;;;3.05;1.10;;;12.40;67.10;;;;;;4867069;29;20036;-65
2021/09/01 03:26:37;;;;;;;19.40;13.38;;;12.50;67.30;;;;;;4871351;29;20081;-68
2021/09/01 03:29:43;;;;;;;5.55;2.60;;;12.50;67.20;;;;;;4871911;29;20036;-68
2021/09/01 03:32:49;;;;;;;4.25;1.13;;;12.50;66.80;;;;;;4871080;29;20445;-67
2021/09/01 03:35:55;;;;;;;7.18;0.85;;;12.50;66.40;;;;;;4874874;29;20495;-70
2021/09/01 03:39:01;;;;;;;5.25;0.73;;;12.50;66.50;;;;;;4873816;29;20052;-67
2021/09/01 03:42:07;;;;;;;2.42;0.95;;;12.50;66.30;;;;;;4869996;29;20393;-67
2021/09/01 03:45:13;;;;;;;9.18;0.90;;;12.50;66.30;;;;;;4872456;29;20486;-68
2021/09/01 03:47:40;;;;;;;4.30;1.08;;;12.50;65.90;;;;;;4873454;29;20488;-68
2021/09/01 03:50:08;;;;;;;3.50;0.85;;;12.50;66.20;;;;;;4873284;29;20048;-67
2021/09/01 03:52:35;;;;;;;2.47;0.68;;;12.50;66.30;;;;;;4868380;29;20021;-74
2021/09/01 03:55:02;;;;;;;5.75;1.40;;;12.50;66.40;;;;;;4859060;29;20374;-65
2021/09/01 03:57:28;;;;;;;6.75;0.95;;;12.40;66.30;;;;;;4873265;29;20058;-73
2021/09/01 03:59:55;;;;;;;7.30;1.48;;;12.50;66.20;;;;;;4872427;29;20033;-69
2021/09/01 04:02:21;;;;;;;22.58;15.95;;;12.40;66.40;;;;;;4875460;29;20025;-75
2021/09/01 04:04:48;;;;;;;9.35;5.53;;;12.40;66.60;;;;;;4870679;29;20120;-70
2021/09/01 04:07:14;;;;;;;4.45;1.55;;;12.50;66.70;;;;;;4869578;29;20461;-67
2021/09/01 04:09:41;;;;;;;10.13;1.75;;;12.50;66.80;;;;;;4871551;29;20089;-68
2021/09/01 04:12:07;;;;;;;3.33;0.90;;;12.40;66.90;;;;;;4871819;29;20107;-69
2021/09/01 04:14:34;;;;;;;3.75;0.73;;;12.40;67.30;;;;;;4875893;29;20088;-68
2021/09/01 04:17:00;;;;;;;6.35;2.55;;;12.40;68.20;;;;;;4869774;29;20083;-67
2021/09/01 04:19:27;;;;;;;18.98;14.18;;;12.40;67.80;;;;;;4871608;29;20404;-69
2021/09/01 04:21:53;;;;;;;17.67;12.45;;;12.40;68.00;;;;;;4870977;29;20017;-68
2021/09/01 04:24:19;;;;;;;13.60;6.43;;;12.40;68.00;;;;;;4863718;29;20041;-67
2021/09/01 04:26:46;;;;;;;7.53;3.42;;;12.40;67.90;;;;;;4870000;29;20024;-68
2021/09/01 04:29:12;;;;;;;4.15;1.92;;;12.40;68.10;;;;;;4865667;29;20026;-66
2021/09/01 04:31:39;;;;;;;3.65;0.90;;;12.40;68.20;;;;;;4866315;29;20033;-66
2021/09/01 04:34:05;;;;;;;6.30;1.20;;;12.40;68.20;;;;;;4865196;29;20026;-67
2021/09/01 04:36:32;;;;;;;4.10;1.15;;;12.40;68.20;;;;;;4866727;29;20033;-67
2021/09/01 04:38:58;;;;;;;2.90;1.02;;;12.40;68.30;;;;;;4866386;29;20055;-68
2021/09/01 04:41:25;;;;;;;1.90;0.82;;;12.40;68.60;;;;;;4864828;29;20029;-68
2021/09/01 04:43:51;;;;;;;4.55;1.90;;;12.40;68.80;;;;;;4866468;29;20029;-69
2021/09/01 04:46:18;;;;;;;6.32;1.50;;;12.40;69.10;;;;;;4861646;29;20115;-69
2021/09/01 04:48:44;;;;;;;3.40;0.73;;;12.40;69.30;;;;;;4860537;29;20468;-67
2021/09/01 04:51:11;;;;;;;2.58;1.20;;;12.40;69.30;;;;;;4870489;29;20100;-67
2021/09/01 04:53:37;;;;;;;2.80;0.90;;;12.40;69.40;;;;;;4872224;29;20025;-67
2021/09/01 04:56:04;;;;;;;4.00;0.90;;;12.40;69.30;;;;;;4871621;29;20105;-67
2021/09/01 04:58:30;;;;;;;2.63;0.93;;;12.40;68.90;;;;;;4872851;29;20045;-66
2021/09/01 05:00:57;;;;;;;1.67;1.05;;;12.40;68.80;;;;;;4873175;29;20024;-66
2021/09/01 05:03:23;;;;;;;8.13;0.85;;;12.30;68.60;;;;;;4872546;29;20643;-66
2021/09/01 05:05:50;;;;;;;6.70;2.08;;;12.30;68.60;;;;;;4870467;29;20625;-66
2021/09/01 05:08:16;;;;;;;3.38;1.02;;;12.30;68.50;;;;;;4870014;29;20081;-66
2021/09/01 05:10:43;;;;;;;3.58;0.80;;;12.30;68.50;;;;;;4867937;29;20040;-66
2021/09/01 05:13:09;;;;;;;5.97;1.70;;;12.30;68.60;;;;;;4872978;29;20017;-66
2021/09/01 05:15:39;;;;;;;4.55;1.50;;;12.30;68.70;;;;;;4867159;29;20030;-66
2021/09/01 05:18:06;;;;;;;6.85;1.42;;;12.30;68.60;;;;;;4870687;29;20029;-67
2021/09/01 05:20:38;;;;;;;3.58;1.10;;;12.30;68.40;;;;;;4863659;29;20029;-67
2021/09/01 05:23:07;;;;;;;5.60;1.58;;;12.30;68.60;;;;;;4868587;29;20028;-67
2021/09/01 05:25:48;;;;;;;8.40;1.65;;;12.30;68.60;;;;;;4866748;29;20056;-67
2021/09/01 05:28:19;;;;;;;3.03;1.00;;;12.30;68.60;;;;;;4866917;29;20114;-67
2021/09/01 05:30:48;;;;;;;5.03;2.17;;;12.30;68.70;;;;;;4868439;29;20017;-67
2021/09/01 05:33:15;;;;;;;6.30;2.03;;;12.30;68.70;;;;;;4876122;29;20488;-67
2021/09/01 05:35:43;;;;;;;6.07;1.20;;;12.30;68.70;;;;;;4873192;29;20032;-67
2021/09/01 05:38:11;;;;;;;5.68;1.17;;;12.30;68.70;;;;;;4874106;29;20043;-67
2021/09/01 05:40:40;;;;;;;5.38;1.10;;;12.30;68.80;;;;;;4875707;29;20029;-67
2021/09/01 05:43:07;;;;;;;3.90;1.45;;;12.30;68.90;;;;;;4875655;29;20868;-67
2021/09/01 05:45:35;;;;;;;9.10;1.77;;;12.30;68.90;;;;;;4873541;29;20040;-67
2021/09/01 05:48:02;;;;;;;4.88;1.33;;;12.20;68.80;;;;;;4874983;29;20021;-66
2021/09/01 05:50:29;;;;;;;6.90;1.65;;;12.30;69.00;;;;;;4869108;29;20598;-67
2021/09/01 05:52:56;;;;;;;8.75;1.58;;;12.30;69.00;;;;;;4871256;29;20108;-66
2021/09/01 05:55:28;;;;;;;3.85;1.45;;;12.30;69.00;;;;;;4874811;29;20028;-66
2021/09/01 05:58:00;;;;;;;7.35;2.00;;;12.30;69.10;;;;;;4875951;29;20085;-67
2021/09/01 06:00:35;;;;;;;18.48;1.92;;;12.30;69.00;;;;;;4872375;29;20028;-67
2021/09/01 06:03:24;;;;;;;6.10;1.60;;;12.30;69.00;;;;;;4874141;29;20080;-67
2021/09/01 06:05:55;;;;;;;7.65;1.30;;;12.40;69.00;;;;;;4874695;29;20028;-66
2021/09/01 06:08:24;;;;;;;4.40;1.00;;;12.30;69.00;;;;;;4873876;29;20020;-67
2021/09/01 06:10:54;;;;;;;5.50;2.03;;;12.30;68.90;;;;;;4873608;29;20028;-67
2021/09/01 06:13:21;;;;;;;8.00;2.13;;;12.40;69.00;;;;;;4873185;29;20116;-67
2021/09/01 06:15:48;;;;;;;6.78;1.30;;;12.30;69.50;;;;;;4874184;29;20488;-66
2021/09/01 06:18:14;;;;;;;5.07;1.38;;;12.40;68.90;;;;;;4874082;29;20037;-67
2021/09/01 06:20:41;;;;;;;6.18;2.05;;;12.40;68.90;;;;;;4856379;29;20060;-67
2021/09/01 06:23:08;;;;;;;9.55;1.40;;;12.40;69.00;;;;;;4873790;29;20589;-66
2021/09/01 06:25:36;;;;;;;5.80;1.30;;;12.40;69.00;;;;;;4875202;29;20025;-66
2021/09/01 06:28:06;;;;;;;4.47;2.00;;;12.40;68.70;;;;;;4872789;29;20069;-66
2021/09/01 06:30:33;;;;;;;8.80;2.58;;;12.50;68.80;;;;;;4856248;29;20404;-67
2021/09/01 06:32:59;;;;;;;8.30;2.15;;;12.50;68.80;;;;;;4872151;29;20026;-67
2021/09/01 06:35:26;;;;;;;8.45;1.50;;;12.50;68.90;;;;;;4875181;29;20527;-66
2021/09/01 06:37:53;;;;;;;5.57;1.73;;;12.60;68.90;;;;;;4870227;29;20038;-67
2021/09/01 06:40:20;;;;;;;4.20;1.38;;;12.60;68.50;;;;;;4873943;29;20058;-67
2021/09/01 06:42:47;;;;;;;4.90;1.55;;;12.60;68.50;;;;;;4874473;29;20025;-67
2021/09/01 06:45:14;;;;;;;3.58;1.48;;;12.60;68.50;;;;;;4870725;29;20096;-67
2021/09/01 06:47:51;;;;;;;10.95;2.45;;;12.60;68.20;;;;;;4874095;29;20029;-66
2021/09/01 06:50:26;;;;;;;5.53;1.55;;;12.70;68.30;;;;;;4873931;29;20027;-66
2021/09/01 06:52:53;;;;;;;6.88;1.98;;;12.70;68.60;;;;;;4870958;29;20045;-66
2021/09/01 06:55:21;;;;;;;7.90;1.75;;;12.80;68.50;;;;;;4869697;29;20025;-66
2021/09/01 06:57:47;;;;;;;4.90;1.60;;;12.80;68.30;;;;;;4871221;29;20076;-67
2021/09/01 07:00:16;;;;;;;4.35;1.70;;;12.90;68.20;;;;;;4873601;29;20473;-67
2021/09/01 07:02:43;;;;;;;9.10;1.60;;;12.90;68.10;;;;;;4874410;29;20041;-67
2021/09/01 07:05:11;;;;;;;5.95;2.13;;;13.00;68.10;;;;;;4872936;29;20400;-66
2021/09/01 07:07:41;;;;;;;4.60;1.58;;;13.00;68.20;;;;;;4870555;29;20021;-66
2021/09/01 07:10:08;;;;;;;2.50;1.33;;;13.00;67.50;;;;;;4874409;29;20022;-66
2021/09/01 07:12:35;;;;;;;6.38;1.73;;;13.10;67.20;;;;;;4872182;29;20449;-67
2021/09/01 07:15:02;;;;;;;7.97;2.28;;;13.10;66.70;;;;;;4875140;29;20021;-66
2021/09/01 07:17:29;;;;;;;12.82;2.33;;;13.20;66.50;;;;;;4873554;29;20465;-66
2021/09/01 07:19:55;;;;;;;5.70;1.73;;;13.20;66.50;;;;;;4872550;29;20040;-67
2021/09/01 07:22:22;;;;;;;3.83;2.33;;;13.30;66.60;;;;;;4872709;29;20017;-67
2021/09/01 07:24:48;;;;;;;7.40;2.72;;;13.30;66.90;;;;;;4873287;29;20061;-66
2021/09/01 07:27:15;;;;;;;3.92;2.00;;;13.40;66.50;;;;;;4874994;29;20026;-66
2021/09/01 07:29:41;;;;;;;6.68;2.47;;;13.40;66.60;;;;;;4856650;29;20025;-69
2021/09/01 07:32:08;;;;;;;3.38;1.33;;;13.50;66.80;;;;;;4878737;29;20044;-66
2021/09/01 07:34:34;;;;;;;8.43;2.17;;;13.50;65.80;;;;;;4875728;29;20029;-67
2021/09/01 07:37:01;;;;;;;5.55;1.40;;;13.50;65.70;;;;;;4860530;29;20477;-66
2021/09/01 07:39:27;;;;;;;5.50;1.50;;;13.60;65.20;;;;;;4876915;29;20773;-66
2021/09/01 07:41:54;;;;;;;6.88;2.10;;;13.60;64.90;;;;;;4871782;29;20045;-66
2021/09/01 07:44:20;;;;;;;5.55;1.90;;;13.70;64.70;;;;;;4878866;29;20072;-66
2021/09/01 07:46:47;;;;;;;4.57;1.65;;;13.80;64.50;;;;;;4875649;29;20025;-66
2021/09/01 07:49:13;;;;;;;4.13;2.00;;;13.90;64.20;;;;;;4876520;29;20473;-66
2021/09/01 07:51:40;;;;;;;8.40;1.80;;;13.90;63.90;;;;;;4874211;29;20128;-66
2021/09/01 07:54:06;;;;;;;5.35;2.28;;;13.90;64.00;;;;;;4874288;29;20018;-66
2021/09/01 07:56:33;;;;;;;6.78;1.77;;;14.00;63.90;;;;;;4871174;29;20054;-66
2021/09/01 07:58:59;;;;;;;3.17;1.00;;;14.00;63.60;;;;;;4874829;29;20049;-66
2021/09/01 08:01:26;;;;;;;4.05;1.35;;;14.10;63.50;;;;;;4878739;29;20544;-66
2021/09/01 08:03:52;;;;;;;9.90;2.22;;;14.10;63.40;;;;;;4875317;29;20497;-66
2021/09/01 08:06:19;;;;;;;7.35;2.30;;;14.20;63.00;;;;;;4877455;29;20380;-66
2021/09/01 08:08:46;;;;;;;6.57;1.98;;;14.30;62.70;;;;;;4877034;29;20044;-67
2021/09/01 08:11:13;;;;;;;4.75;1.48;;;14.30;62.40;;;;;;4878993;29;20196;-66
2021/09/01 08:13:40;;;;;;;6.95;2.03;;;14.30;62.00;;;;;;4873869;29;20044;-67
2021/09/01 08:16:07;;;;;;;12.85;2.72;;;14.40;61.80;;;;;;4878487;29;20018;-67
2021/09/01 08:18:34;;;;;;;5.53;1.23;;;14.40;61.20;;;;;;4876424;29;20037;-66
2021/09/01 08:21:00;;;;;;;5.70;1.45;;;14.50;60.60;;;;;;4878327;29;20104;-67
2021/09/01 08:23:27;;;;;;;9.00;2.00;;;14.60;60.40;;;;;;4874982;29;20176;-66
2021/09/01 08:25:53;;;;;;;4.40;2.47;;;14.60;61.00;;;;;;4873984;29;20021;-67
2021/09/01 08:28:20;;;;;;;8.27;3.13;;;14.60;61.50;;;;;;4876119;29;20060;-67
2021/09/01 08:30:46;;;;;;;2.85;1.67;;;14.70;61.50;;;;;;4876426;29;20033;-68
2021/09/01 08:33:13;;;;;;;5.95;1.60;;;14.70;61.60;;;;;;4875995;29;20073;-67
2021/09/01 08:35:39;;;;;;;3.42;2.22;;;14.80;61.60;;;;;;4873563;29;20323;-67
2021/09/01 08:38:06;;;;;;;2.40;1.02;;;14.80;61.50;;;;;;4877505;29;20041;-67
2021/09/01 08:40:32;;;;;;;6.32;1.25;;;14.80;61.60;;;;;;4873851;29;20033;-67
2021/09/01 08:42:59;;;;;;;6.63;1.38;;;14.80;59.80;;;;;;4875644;29;20033;-67
2021/09/01 08:45:26;;;;;;;4.88;1.70;;;14.80;59.50;;;;;;4873803;29;20028;-67
2021/09/01 08:47:55;;;;;;;7.95;0.95;;;14.90;59.50;;;;;;4875821;29;20025;-67
2021/09/01 08:50:21;;;;;;;6.22;1.25;;;14.90;59.60;;;;;;4876458;29;20096;-67
2021/09/01 08:52:48;;;;;;;7.35;0.93;;;15.00;59.40;;;;;;4872105;29;20025;-67
2021/09/01 08:55:15;;;;;;;4.97;1.08;;;15.10;58.90;;;;;;4873321;29;20108;-67
2021/09/01 08:57:42;;;;;;;2.67;1.02;;;15.20;59.10;;;;;;4873939;29;20025;-67
2021/09/01 09:00:10;;;;;;;3.17;1.10;;;15.30;59.30;;;;;;4875291;29;21350;-67
2021/09/01 09:02:36;;;;;;;5.68;1.50;;;15.30;59.40;;;;;;4875516;29;20052;-66
2021/09/01 09:05:08;;;;;;;6.72;1.83;;;15.40;59.00;;;;;;4874866;29;20088;-67
2021/09/01 09:07:56;;;;;;;3.72;1.15;;;15.50;59.70;;;;;;4871328;29;20061;-66
2021/09/01 09:10:46;;;;;;;8.13;2.22;;;15.50;59.00;;;;;;4874840;29;20107;-68
2021/09/01 09:13:34;;;;;;;8.32;1.67;;;15.50;58.70;;;;;;4863795;29;20033;-66
2021/09/01 09:16:07;;;;;;;9.82;1.40;;;15.60;59.30;;;;;;4876061;29;20116;-66
2021/09/01 09:18:34;;;;;;;4.75;0.70;;;15.70;59.20;;;;;;4872906;29;20056;-67
2021/09/01 09:21:21;;;;;;;4.47;1.25;;;15.70;58.40;;;;;;4874068;29;20489;-66
2021/09/01 09:23:54;;;;;;;3.63;1.63;;;15.90;57.70;;;;;;4869833;29;20038;-66
2021/09/01 09:26:28;;;;;;;3.28;1.20;;;15.90;57.00;;;;;;4873101;29;20063;-67
2021/09/01 09:29:18;;;;;;;8.75;2.08;;;15.90;57.30;;;;;;4876653;29;20069;-67
2021/09/01 09:32:00;;;;;;;5.65;1.50;;;16.00;57.20;;;;;;4872308;29;20136;-67
2021/09/01 09:34:43;;;;;;;2.65;1.67;;;16.10;55.90;;;;;;4875727;29;20037;-67
2021/09/01 09:37:14;;;;;;;7.30;1.48;;;16.20;55.40;;;;;;4874750;29;20120;-67
2021/09/01 09:39:40;;;;;;;4.18;1.00;;;16.30;55.30;;;;;;4876438;29;20084;-66
2021/09/01 09:42:08;;;;;;;4.93;1.33;;;16.30;56.40;;;;;;4872842;29;20036;-67
2021/09/01 09:44:34;;;;;;;5.22;1.30;;;16.30;57.30;;;;;;4868680;29;20029;-66
2021/09/01 09:47:01;;;;;;;7.05;1.88;;;16.30;57.70;;;;;;4874079;29;20033;-66
2021/09/01 09:49:29;;;;;;;2.45;0.88;;;16.40;57.80;;;;;;4869381;29;20073;-66
2021/09/01 09:51:56;;;;;;;5.05;1.50;;;16.40;57.90;;;;;;4875334;29;20088;-66
2021/09/01 09:54:28;;;;;;;5.70;2.10;;;16.40;57.50;;;;;;4874493;29;20021;-66
2021/09/01 09:57:11;;;;;;;4.63;1.50;;;16.50;57.20;;;;;;4871796;29;20023;-66
2021/09/01 09:59:39;;;;;;;3.45;1.17;;;16.50;57.90;;;;;;4853633;29;20405;-66
2021/09/01 10:02:06;;;;;;;5.72;1.63;;;16.60;59.20;;;;;;4874158;29;20202;-66
2021/09/01 10:04:32;;;;;;;4.05;1.65;;;16.60;58.60;;;;;;4874352;29;20504;-66
2021/09/01 10:06:59;;;;;;;9.57;2.72;;;16.70;58.30;;;;;;4873529;29;20025;-65
2021/09/01 10:09:25;;;;;;;2.03;1.70;;;16.70;57.60;;;;;;4873713;29;20384;-66
2021/09/01 10:11:53;;;;;;;2.50;1.02;;;16.80;56.30;;;;;;4873056;29;20064;-66
2021/09/01 10:14:24;;;;;;;6.22;1.63;;;16.80;55.30;;;;;;4856136;29;20040;-66
2021/09/01 10:17:06;;;;;;;4.88;2.17;;;16.90;54.90;;;;;;4873563;29;20031;-66
2021/09/01 10:19:35;;;;;;;5.25;1.48;;;16.90;54.70;;;;;;4872938;29;20037;-66
2021/09/01 10:22:04;;;;;;;9.85;1.92;;;17.00;54.80;;;;;;4872693;29;20236;-66
2021/09/01 10:24:33;;;;;;;3.47;2.10;;;17.00;55.00;;;;;;4872888;29;20516;-66
2021/09/01 10:27:17;;;;;;;6.78;1.52;;;17.10;52.70;;;;;;4872462;29;20514;-66
2021/09/01 10:29:57;;;;;;;9.85;1.83;;;17.20;53.10;;;;;;4872317;29;20029;-66
2021/09/01 10:32:25;;;;;;;5.85;1.70;;;17.30;54.00;;;;;;4873566;29;20488;-66
2021/09/01 10:35:15;;;;;;;4.75;1.92;;;17.40;53.70;;;;;;4873728;29;20024;-66
2021/09/01 10:37:49;;;;;;;4.78;1.60;;;17.40;54.10;;;;;;4872677;29;20060;-66
2021/09/01 10:40:21;;;;;;;10.52;1.60;;;17.50;54.10;;;;;;4867306;29;20033;-66
2021/09/01 10:42:52;;;;;;;4.82;1.85;;;17.50;54.60;;;;;;4873083;29;20073;-66
2021/09/01 10:45:24;;;;;;;4.65;1.40;;;17.50;55.00;;;;;;4871507;29;20017;-66
2021/09/01 10:47:53;;;;;;;3.80;1.65;;;17.60;54.70;;;;;;4872945;29;20040;-66
2021/09/01 10:50:30;;;;;;;4.80;1.10;;;17.60;53.70;;;;;;4871498;29;20025;-66
2021/09/01 10:53:05;;;;;;;3.97;1.95;;;17.60;53.70;;;;;;4873386;29;20056;-66
2021/09/01 10:55:33;;;;;;;4.70;0.93;;;17.70;53.80;;;;;;4874044;29;20089;-66
2021/09/01 10:58:20;;;;;;;3.22;1.30;;;17.70;53.40;;;;;;4873751;29;21118;-68
2021/09/01 11:00:58;;;;;;;5.53;1.40;;;17.80;53.70;;;;;;4874282;29;20076;-66
2021/09/01 11:03:48;;;;;;;9.40;2.17;;;17.90;53.10;;;;;;4871541;29;20027;-66
2021/09/01 11:06:17;;;;;;;10.77;2.20;;;17.90;53.60;;;;;;4872444;29;20037;-66
2021/09/01 11:09:07;;;;;;;3.22;1.08;;;18.00;53.00;;;;;;4877697;29;20029;-66
2021/09/01 11:11:43;;;;;;;7.70;1.73;;;18.10;52.50;;;;;;4864782;29;20557;-66
2021/09/01 11:14:11;;;;;;;5.75;1.60;;;18.20;51.80;;;;;;4879520;29;20496;-66
2021/09/01 11:16:38;;;;;;;4.78;1.70;;;18.30;50.90;;;;;;4873797;29;20073;-66
2021/09/01 11:19:07;;;;;;;8.95;1.30;;;18.40;50.60;;;;;;4874398;29;20040;-66
2021/09/01 11:21:39;;;;;;;7.88;1.90;;;18.50;50.00;;;;;;4874782;29;20060;-66
2021/09/01 11:24:09;;;;;;;6.30;2.25;;;18.60;50.00;;;;;;4873641;29;20021;-66
2021/09/01 11:26:36;;;;;;;5.20;2.75;;;18.70;50.00;;;;;;4873454;29;20106;-66
2021/09/01 11:29:06;;;;;;;4.72;2.08;;;18.70;51.20;;;;;;4875726;29;20021;-66
2021/09/01 11:31:43;;;;;;;6.85;1.63;;;18.80;51.20;;;;;;4876963;29;20457;-66
2021/09/01 11:34:12;;;;;;;7.40;2.22;;;18.80;51.50;;;;;;4878012;29;20029;-66
2021/09/01 11:36:39;;;;;;;5.65;1.90;;;19.00;51.10;;;;;;4877136;29;20927;-66
2021/09/01 11:39:06;;;;;;;7.00;1.50;;;19.00;50.70;;;;;;4875436;29;20097;-66
2021/09/01 11:41:33;;;;;;;7.90;1.38;;;19.10;50.10;;;;;;4875606;29;20073;-66
2021/09/01 11:44:02;;;;;;;5.68;2.22;;;19.10;49.60;;;;;;4878879;29;20021;-66
2021/09/01 11:46:34;;;;;;;4.22;0.98;;;19.20;50.10;;;;;;4873274;29;20017;-66
2021/09/01 11:49:09;;;;;;;3.40;1.20;;;19.20;50.60;;;;;;4873234;29;20499;-66
2021/09/01 11:51:37;;;;;;;11.65;1.50;;;19.20;49.90;;;;;;4871399;29;20037;-67
2021/09/01 11:54:05;;;;;;;2.92;1.52;;;19.30;49.10;;;;;;4872473;29;20017;-66
2021/09/01 11:56:32;;;;;;;6.65;1.50;;;19.30;48.70;;;;;;4875223;29;20076;-66
2021/09/01 11:59:03;;;;;;;3.95;1.13;;;19.40;48.50;;;;;;4875958;29;20108;-67
2021/09/01 12:01:32;;;;;;;4.63;1.13;;;19.50;48.20;;;;;;4877755;29;20029;-66
2021/09/01 12:03:59;;;;;;;6.63;1.40;;;19.60;48.20;;;;;;4874861;29;20017;-66
2021/09/01 12:06:43;;;;;;;7.35;1.50;;;19.70;45.90;;;;;;4875122;29;20017;-66
2021/09/01 12:09:16;;;;;;;5.25;1.42;;;19.80;46.40;;;;;;4875564;29;20044;-66
2021/09/01 12:11:56;;;;;;;4.40;1.45;;;19.90;45.80;;;;;;4873419;29;20061;-66
2021/09/01 12:14:25;;;;;;;6.82;1.60;;;19.90;44.60;;;;;;4876037;29;20400;-66
2021/09/01 12:16:53;;;;;;;5.13;1.30;;;19.90;44.40;;;;;;4877777;29;20096;-66
2021/09/01 12:19:21;;;;;;;5.22;1.17;;;20.00;44.50;;;;;;4877660;29;20392;-67
2021/09/01 12:22:00;;;;;;;7.70;1.48;;;20.00;44.40;;;;;;4872798;29;20606;-66
2021/09/01 12:24:33;;;;;;;6.30;1.75;;;20.00;45.20;;;;;;4875326;29;20057;-67
2021/09/01 12:27:09;;;;;;;1.75;1.27;;;20.00;45.20;;;;;;4874674;29;20068;-66
2021/09/01 12:29:49;;;;;;;5.35;1.42;;;20.10;45.60;;;;;;4876371;29;20021;-67
2021/09/01 12:32:18;;;;;;;9.10;1.15;;;20.00;45.30;;;;;;4872375;29;20021;-66
2021/09/01 12:34:51;;;;;;;4.03;1.45;;;20.00;44.50;;;;;;4872667;29;20151;-66
2021/09/01 12:37:29;;;;;;;3.97;1.58;;;19.90;44.30;;;;;;4876995;29;20026;-66
2021/09/01 12:39:59;;;;;;;4.10;1.45;;;19.90;46.40;;;;;;4870701;29;20044;-66
2021/09/01 12:42:29;;;;;;;5.70;1.40;;;20.00;45.50;;;;;;4874913;29;20021;-66
2021/09/01 12:45:05;;;;;;;7.18;1.10;;;20.00;44.50;;;;;;4876599;29;20048;-66
2021/09/01 12:47:32;;;;;;;3.53;0.95;;;20.10;44.90;;;;;;4872230;29;20594;-66
2021/09/01 12:50:01;;;;;;;7.20;1.75;;;20.10;44.30;;;;;;4871857;29;20350;-66
2021/09/01 12:52:28;;;;;;;3.40;1.10;;;20.10;43.30;;;;;;4875327;29;20021;-66
2021/09/01 12:54:57;;;;;;;3.58;1.42;;;20.10;43.10;;;;;;4873337;29;20398;-66
2021/09/01 12:57:24;;;;;;;8.20;1.25;;;20.10;42.80;;;;;;4874438;29;20153;-66
2021/09/01 12:59:51;;;;;;;4.90;1.65;;;20.10;43.10;;;;;;4876020;29;20687;-67